Nearby METAR Reports

 

KBFI - Seattle/Boeing, Washington, USA
Distance from station: S 10mi, 16km
Updated: May/16/2022 11:53pm
Few Clouds
Few Clouds
 Wind from ENE
Wind: ENE 3 mph , 6 km/h
Temperature: 52°F , 11°C
Dew Point: 39°F , 4°C
Humidity: 62%
Barometer: 30.24 inHg , 1024 hPa
Clouds: Few Clouds
Visibility: 10 miles , 16 km
Cloud details: Few Clouds 4200 ft
2022/05/17 06:53 KBFI 170653Z 07003KT 10SM FEW042 11/04 A3024 RMK AO2 SLP238 T01060044
KRNT - Renton, Washington, USA
Distance from station: SSE 14mi, 23km
Updated: May/16/2022 11:53pm
Partly cloudy
Partly cloudy
 Wind from calm
Wind: Calm
Temperature: 48°F , 9°C
Dew Point: 41°F , 5°C
Humidity: 76%
Barometer: 30.23 inHg , 1023.7 hPa
Clouds: Partly cloudy
Visibility: 10 miles , 16 km
Cloud details: Partly cloudy 5500 ft
2022/05/17 06:53 KRNT 170653Z AUTO 00000KT 10SM SCT055 09/05 A3023 RMK AO2 SLP243 T00940050
 
KPAE - Everett, Washington, USA
Distance from station: N 15mi, 25km
Updated: May/16/2022 11:53pm
Overcast
Overcast
 Wind from calm
Wind: Calm
Temperature: 48°F , 9°C
Dew Point: 39°F , 4°C
Humidity: 71%
Barometer: 30.23 inHg , 1023.7 hPa
Clouds: Overcast
Visibility: 10 miles , 16 km
Cloud details: Overcast 4100 ft
2022/05/17 06:53 KPAE 170653Z AUTO 00000KT 10SM OVC041 09/04 A3023 RMK AO2 SLP240 T00890039
KSEA - Seattle/Metro, Washington, USA
Distance from station: S 17mi, 27km
Updated: May/16/2022 11:53pm
Partly cloudy
Partly cloudy
 Wind from S
Wind: S 5 mph , 7 km/h
Temperature: 48°F , 9°C
Wind Chill: 46°F , 8°C
Dew Point: 39°F , 4°C
Humidity: 71%
Barometer: 30.23 inHg , 1023.7 hPa
Clouds: Partly cloudy
Visibility: 10 miles , 16 km
Cloud details: Few Clouds 5000 ft
Partly cloudy 25000 ft
2022/05/17 06:53 KSEA 170653Z 18004KT 10SM FEW050 SCT250 09/04 A3023 RMK AO2 SLP244 T00940044
 
KPWT - Bremerton Ntnl, Washington, USA
Distance from station: SW 24mi, 39km
Updated: May/16/2022 11:56pm
Clear
Clear
 Wind from E
Wind: E 3 mph , 6 km/h
Temperature: 43°F , 6°C
Dew Point: 39°F , 4°C
Humidity: 87%
Clouds: Clear
Visibility: 10 miles , 16 km
2022/05/17 06:56 KPWT 170656Z AUTO 08003KT 10SM CLR 06/04 RMK AO2 SLPNO T00610044 $
KTIW - Tacoma, Washington, USA
Distance from station: SSW 32mi, 52km
Updated: May/16/2022 11:53pm
Clear
Clear
 Wind from varies
Wind: varies 5 mph , 7 km/h
Temperature: 46°F , 8°C
Wind Chill: 44°F , 7°C
Dew Point: 41°F , 5°C
Humidity: 82%
Barometer: 30.24 inHg , 1024 hPa
Clouds: Clear
Visibility: 10 miles , 16 km
2022/05/17 06:53 KTIW 170653Z VRB04KT 10SM CLR 08/05 A3024 RMK AO2 SLP239 T00830050
 
KAWO - Arlington Muni, Washington, USA
Distance from station: N 33mi, 54km
Updated: May/16/2022 11:56pm
Overcast
Overcast
 Wind from calm
Wind: Calm
Temperature: 48°F , 9°C
Dew Point: 43°F , 6°C
Humidity: 82%
Barometer: 30.24 inHg , 1024 hPa
Clouds: Overcast
Visibility: 10 miles , 16 km
Cloud details: Overcast 5500 ft
2022/05/17 06:56 KAWO 170656Z AUTO 00000KT 10SM OVC055 09/06 A3024 RMK AO2 RAE09 SLP244 P0000 T00940056
KTCM - Tacoma/Mc Chord, Washington, USA
Distance from station: S 41mi, 65km
Updated: May/16/2022 11:58pm
Clear
Clear
 Wind from SSE
Wind: SSE 5 mph , 7 km/h
Temperature: 43°F , 6°C
Wind Chill: 40°F , 4°C
Dew Point: 41°F , 5°C
Humidity: 93%
Barometer: 30.24 inHg , 1024 hPa
Clouds: Clear
Visibility: 10 miles , 16 km
2022/05/17 06:58 KTCM 170658Z AUTO 16004KT 10SM CLR 06/05 A3024 RMK AO2 SLP245 T00600046 $
 
KPLU - Puyallup/Thun, Washington, USA
Distance from station: S 41mi, 66km
Updated: May/17/2022 12:35am
Clear
Clear
 Wind from calm
Wind: Calm
Temperature: 43°F , 6°C
Dew Point: 41°F , 5°C
Humidity: 93%
Barometer: 30.24 inHg , 1024 hPa
Clouds: Clear
Visibility: 10 miles , 16 km
2022/05/17 07:35 KPLU 170735Z AUTO 00000KT 10SM CLR 06/05 A3024 RMK AO2
KGRF - Fort Lewis/Gray, Washington, USA
Distance from station: SSW 45mi, 72km
Updated: May/16/2022 11:58pm
Clear
Clear
 Wind from SE
Wind: SE 8 mph , 13 km/h
Temperature: 41°F , 5°C
Wind Chill: 36°F , 2°C
Dew Point: 37°F , 3°C
Humidity: 87%
Barometer: 30.23 inHg , 1023.7 hPa
Clouds: Clear
Visibility: 10 miles , 16 km
2022/05/17 06:58 KGRF 170658Z 14007KT 10SM CLR 05/03 A3023 RMK AO2A SLP242 T00540027
 
KNUW - Whidbey Is. Nas, Washington, USA
Distance from station: NNW 48mi, 77km
Updated: May/16/2022 11:56pm
Light rain, Overcast
Light rain, Overcast
 Wind from SW
Wind: SW 7 mph , 11 km/h
Temperature: 48°F , 9°C
Wind Chill: 45°F , 7°C
Dew Point: 41°F , 5°C
Humidity: 76%
Barometer: 30.26 inHg , 1024.7 hPa
Summary: Light rain
Clouds: Overcast
Visibility: 8 miles , 13 km
Cloud details: Mostly cloudy 4500 ft
Mostly cloudy 6500 ft
Overcast 25000 ft
2022/05/17 06:56 KNUW 170656Z 23006KT 8SM -RA BKN045 BKN065 OVC250 09/05 A3026 RMK AO2 RAE22B49 SLP246 P0000 T00940050
KSHN - Shelton, Washington, USA
Distance from station: SW 50mi, 80km
Updated: May/16/2022 11:53pm
Clear
Clear
 Wind from WSW
Wind: WSW 9 mph , 15 km/h
Temperature: 45°F , 7°C
Wind Chill: 40°F , 4°C
Dew Point: 39°F , 4°C
Humidity: 81%
Barometer: 30.21 inHg , 1023 hPa
Clouds: Clear
Visibility: 10 miles , 16 km
2022/05/17 06:53 KSHN 170653Z AUTO 25008KT 10SM CLR 07/04 A3021 RMK AO2 SLP233 T00670044